Terminal Aerodrome Forecast
Issued by NWS

Home | Current Version | Previous Version | Text Only | Print | Product List | Glossary On
Versions: 1 2 3 4 5 6 7 8 9 10 11 12 13 14 15
852
FTUS43 KMPX 300524
TAFRNH
TAF
KRNH 300524Z 3006/0106 16004KT P6SM -RA OVC015
     FM300900 14003KT 5SM -RA BR BKN007 OVC012
     FM301200 02003KT 2SM -RASN BR OVC007
     FM302000 35006KT 4SM -RA BR OVC010
     FM010200 30005KT 5SM BR VCSH OVC008=

USA.gov is the U.S. government's official web portal to all federal, state and local government web resources and services.